createdAt,value
2022-09-12T00:04:00.370Z,10.95
2022-09-12T00:10:02.036Z,11.70
2022-09-12T00:16:05.025Z,10.88
2022-09-12T00:22:06.728Z,11.00
2022-09-12T00:28:08.372Z,12.13
2022-09-12T00:34:10.442Z,12.02
2022-09-12T00:40:12.152Z,12.05
2022-09-12T00:46:27.968Z,12.85
2022-09-12T00:52:52.280Z,12.32
2022-09-12T00:59:05.089Z,11.90
2022-09-12T01:05:08.182Z,13.18
2022-09-12T01:11:10.957Z,12.43
2022-09-12T01:17:14.942Z,12.90
2022-09-12T01:23:55.364Z,12.88
2022-09-12T01:30:18.066Z,12.90
2022-09-12T01:36:32.436Z,12.57
2022-09-12T01:43:07.490Z,12.88
2022-09-12T01:49:19.837Z,10.93
2022-09-12T01:55:30.123Z,12.68
2022-09-12T02:01:35.303Z,12.90
2022-09-12T02:07:53.342Z,14.52
2022-09-12T02:14:10.372Z,12.73
2022-09-12T02:20:37.400Z,12.15
2022-09-12T02:26:52.582Z,12.10
2022-09-12T02:33:20.323Z,12.90
2022-09-12T02:39:22.273Z,13.48
2022-09-12T02:45:24.220Z,13.18
2022-09-12T02:51:27.038Z,12.43
2022-09-12T02:57:28.696Z,13.85
2022-09-12T03:03:38.231Z,14.38
2022-09-12T03:09:58.967Z,14.25
2022-09-12T03:16:15.559Z,13.55
2022-09-12T03:22:54.890Z,13.43
2022-09-12T03:28:57.592Z,13.98
2022-09-12T03:34:59.263Z,12.40
2022-09-12T03:41:01.287Z,14.32
2022-09-12T03:47:03.035Z,14.93
2022-09-12T03:53:04.765Z,14.68
2022-09-12T03:59:06.856Z,14.38
2022-09-12T04:05:08.881Z,14.57
2022-09-12T04:11:12.868Z,14.07
2022-09-12T04:17:15.465Z,15.65
2022-09-12T04:23:17.213Z,14.55
2022-09-12T04:29:19.120Z,14.50
2022-09-12T04:35:20.861Z,13.05
2022-09-12T04:41:26.071Z,13.68
2022-09-12T04:47:28.268Z,12.98
2022-09-12T04:53:29.941Z,12.70
2022-09-12T04:59:31.622Z,13.35
2022-09-12T05:05:33.321Z,14.35
2022-09-12T05:12:02.815Z,14.25
2022-09-12T05:17:59.492Z,13.05
2022-09-12T05:24:01.290Z,10.38
2022-09-12T05:30:03.118Z,10.20
2022-09-12T05:36:07.073Z,10.32
2022-09-12T05:42:09.202Z,9.98
2022-09-12T05:48:10.954Z,10.80
2022-09-12T05:54:15.388Z,11.40
2022-09-12T06:06:21.621Z,11.07
2022-09-12T06:12:23.558Z,10.50
2022-09-12T06:18:25.243Z,9.00
2022-09-12T06:24:27.405Z,10.00
2022-09-12T06:30:29.160Z,9.27
2022-09-12T06:36:33.807Z,9.70
2022-09-12T06:48:41.537Z,9.73
2022-09-12T06:54:43.633Z,12.02
2022-09-12T07:00:45.421Z,10.70
2022-09-12T07:06:47.797Z,11.07
2022-09-12T07:12:49.455Z,10.75
2022-09-12T07:18:53.360Z,11.10
2022-09-12T07:24:55.744Z,11.38
2022-09-12T07:30:58.212Z,10.25
2022-09-12T07:36:59.899Z,11.13
2022-09-12T07:43:01.581Z,11.48
2022-09-12T07:49:03.324Z,12.70
2022-09-12T07:55:05.375Z,11.80
2022-09-12T08:01:23.159Z,11.45
2022-09-12T08:07:24.877Z,11.27
2022-09-12T08:13:28.529Z,10.57
2022-09-12T08:19:31.535Z,10.55
2022-09-12T08:25:34.381Z,9.90
2022-09-12T08:31:39.174Z,8.20
2022-09-12T08:37:41.076Z,8.70
2022-09-12T08:43:56.072Z,5.07
2022-09-12T08:50:10.419Z,5.38
2022-09-12T08:56:12.543Z,5.43
2022-09-12T09:02:29.544Z,5.03
2022-09-12T09:09:08.301Z,4.63
2022-09-12T09:15:35.063Z,4.85
2022-09-12T09:21:54.700Z,4.60
2022-09-12T09:28:06.007Z,4.32
2022-09-12T09:34:20.163Z,4.00
2022-09-12T09:46:29.465Z,4.57
2022-09-12T09:52:32.392Z,4.28
2022-09-12T09:58:35.438Z,4.00
2022-09-12T10:04:41.666Z,4.40
2022-09-12T10:11:01.824Z,4.43
2022-09-12T10:17:46.506Z,4.20
2022-09-12T10:23:57.681Z,3.30
2022-09-12T10:30:19.999Z,4.20
2022-09-12T10:36:23.613Z,3.85
2022-09-12T10:42:44.322Z,3.85
2022-09-12T10:48:51.060Z,3.28
2022-09-12T10:54:53.613Z,3.72
2022-09-12T11:01:07.738Z,3.50
2022-09-12T11:07:34.381Z,3.42
2022-09-12T11:13:51.027Z,3.30
2022-09-12T11:20:09.972Z,3.20
2022-09-12T11:26:30.162Z,3.70
2022-09-12T11:33:09.272Z,3.80
2022-09-12T11:39:43.420Z,4.00
2022-09-12T11:45:46.463Z,3.20
2022-09-12T11:51:51.301Z,3.80
2022-09-12T11:57:58.534Z,4.10
2022-09-12T12:04:06.308Z,3.80
2022-09-12T12:10:41.784Z,4.15
2022-09-12T12:16:44.204Z,4.05
2022-09-12T12:22:55.381Z,4.22
2022-09-12T12:28:59.130Z,3.70
2022-09-12T12:35:36.460Z,3.70
2022-09-12T12:41:43.037Z,3.78
2022-09-12T12:47:57.842Z,3.60
2022-09-12T12:54:01.343Z,4.47
2022-09-12T13:00:28.343Z,3.38
2022-09-12T13:06:42.200Z,4.03
2022-09-12T13:12:47.635Z,3.35
2022-09-12T13:18:50.025Z,3.83
2022-09-12T13:24:52.547Z,3.47
2022-09-12T13:31:11.456Z,3.50
2022-09-12T13:37:27.934Z,3.33
2022-09-12T13:43:48.215Z,3.22
2022-09-12T13:49:50.299Z,3.55
2022-09-12T13:55:56.526Z,3.30
2022-09-12T14:01:58.381Z,2.78
2022-09-12T14:08:04.568Z,2.75
2022-09-12T14:14:18.364Z,2.58
2022-09-12T14:20:23.346Z,3.00
2022-09-12T14:26:26.295Z,3.58
2022-09-12T14:32:28.029Z,3.28
2022-09-12T14:38:37.394Z,3.15
2022-09-12T14:44:40.834Z,2.90
